Airfield :
LOGIN :

Register | Disclaimer

   EN    FR    IT 

 










Legend :    VFR   Marginal VFR   IFR   Intensive IFR   Very Intensive IFR
Visi :
Ceiling :
>= 8 km
>= 3000ft
5 to 8 km
1000 to 3000 ft
1500m to 5 km
500 to 1000 ft
800 to 1500m
200 to 500 ft
< 800m
< 200 ft
Symbols :   Thunderstorms  Fog  Heavy snow  Heavy precipitations  Wind > 20 kt
SIGMETs :     Misc.  Thunderstorms  Icing  Turbulence  Mountain Waves  Volcanic Ashes






- Airport Elevation : 203 ft
- IATA code : XMJ


LFBM - Mont-De-Marsan

CURRENT METAR :
  • 132200Z AUTO 10008KT 070V140 CAVOK 19/17 Q1010 TEMPO 3000 BR BKN005

EXPIRED METARs :
  • 132130Z AUTO 10008KT 070V130 CAVOK 20/17 Q1010 TEMPO 3000 BR BKN005
  • 132100Z AUTO 10008KT 080V140 CAVOK 20/17 Q1011 TEMPO 3000 BR BKN005
  • 132030Z AUTO 10009KT CAVOK 21/17 Q1011 TEMPO 3000 BR BKN005
  • 132000Z AUTO 09005KT 060V120 CAVOK 21/17 Q1011 NOSIG
  • 131930Z AUTO 09008KT 060V120 CAVOK 22/17 Q1011 NOSIG

TAF TAF LFBM
Valid from the 13 at 21:00 until the 14 at 21:00 UTC


132000Z 1321/1421 10005KT CAVOK
PROB30
TEMPO 1321/1406 3000 BR BKN005
TEMPO 1412/1416 VRB15G25KT 2000 TSRA BKN040CB
TEMPO 1416/1421 4000 SHRA BKN050TCU



MET'MAP, your aeronautical weather chart ! - Copyright ORBIFLY December 2007 - Disclaimer

ORBIFLY MET'MAP TEAM :

Programming & Development : Alexandra Zaïnal
Concept & Development : Baudouin d'Aumeries
Co-Development & Prog : Marc-Olivier Méhu
Technical & hardware support : Manuel Goepfert

Contact : metmap@orbifly.com




SOURCES & CREDITS :

   NOAA